Terminal Aerodrome Forecast
Issued by NWS Cleveland, OH

Home | Current Version | Previous Version | Graphics & Text | Print | Product List | Glossary On
Versions: 1 2 3 4 5 6 7 8 9 10 11 12 13 14 15 16 17 18 19 20
000
FTUS41 KCLE 202000 AAA
TAFMFD
TAF AMD
KMFD 202059Z 2021/2118 20014G22KT P6SM SCT050
     FM210300 22015KT P6SM VCTS SCT045CB BKN120
      TEMPO 2104/2107 3SM TSRA BR BKN035CB
     FM210700 22012KT P6SM OVC040
     FM211000 23012KT P6SM VCSH SCT015 OVC030
      TEMPO 2110/2114 5SM -SHRA BR SCT009 OVC015
     FM211400 25014KT P6SM BKN040=

USA.gov is the U.S. government's official web portal to all federal, state and local government web resources and services.